Aérodrome :
LOGIN :

S'inscrire | Disclaimer

   EN    FR    IT 

 










Légende :    VFR   VFR Marginal   IFR   IFR Intensif   IFR Très Intensif
Visi : 
Plafond : 
>= 8 km
>= 3000ft
5 à 8 km
1000 à 3000 ft
1500m à 5 km
500 à 1000 ft
800 à 1500m
200 à 500 ft
< 800m
< 200 ft
Symboles :   Orages  Brouillard  Fortes neiges  Fortes précipitations  Vent > 20 kt
SIGMETs :   Divers  Orages  Givrage  Turbulence  Onde Orograph.  Cendres Volcan.






- Altitude de l'aérodrome : 16 ft
- Code IATA : SDR


LEXJ - Santander Cantabria

DERNIER METAR :
  • 190500Z 00000KT 6000 FEW013 18/17 Q1019

METARs EXPIRÉS :
  • 190430Z 00000KT 6000 FEW013 18/17 Q1019
  • 190400Z 00000KT 6000 BKN012 18/17 Q1019
  • 190330Z 00000KT 6000 SCT010 18/17 Q1019
  • 190300Z AUTO 00000KT 5000 BR NSC 19/18 Q1019
  • 190230Z AUTO 00000KT 6000 NSC 19/18 Q1019
  • 190200Z AUTO 18001KT 6000 NSC 19/18 Q1019
  • 190130Z AUTO 00000KT 8000 NSC 18/17 Q1020
  • 190100Z AUTO 00000KT 7000 NSC 18/17 Q1020
  • 190030Z AUTO 24003KT 8000 NSC 19/18 Q1020

TAF TAF LEXJ
Valide du 19 à 03h jusqu'au 20 à 03h UTC


190200Z 1903/2003 VRB03KT 9999 SCT018 TX25/1913Z TN17/1905Z
TEMPO 1903/1910 BKN010
PROB30
TEMPO 1903/1908 3000 BR BKN002
BECMG 1910/1912 35010KT
BECMG 1918/1920 VRB03KT
PROB30
TEMPO 1910/2003 BKN010



MET'MAP, la Météo Aéronautique d'un coup d'oeil ! - Copyright ORBIFLY Décembre 2007 - Disclaimer

ORBIFLY MET'MAP TEAM :

Programmation & Développement : Alexandra Zaïnal
Sur une idée originale de : Baudouin d'Aumeries
Soutien technique & logistique : Manuel Goepfert
Assistance : Marc-Olivier Méhu




SOURCES & CREDITS :

   NOAA